Time;durP1;ratioP1;P1;durP2;ratioP2;P2;SDS_P1;SDS_P2;PMS_P1;PMS_P2;Temp;Humidity;BMP_temperature;BMP_pressure;BME280_temperature;BME280_humidity;BME280_pressure;Samples;Min_cycle;Max_cycle;Signal;HPM_P1;HPM_P2
2021/05/14 00:02:43;;;;;;;1.23;0.60;;;;;;;7.82;57.11;91727.91;4997021;28;20412;-74
2021/05/14 00:05:09;;;;;;;0.70;0.60;;;;;;;7.80;55.76;91731.88;5018384;28;20045;-74
2021/05/14 00:07:35;;;;;;;1.73;0.50;;;;;;;7.78;56.00;91731.38;4992820;28;20053;-74
2021/05/14 00:10:00;;;;;;;3.00;0.60;;;;;;;7.75;55.69;91730.13;4993402;28;20524;-74
2021/05/14 00:12:26;;;;;;;0.43;0.43;;;;;;;7.79;53.58;91732.91;4993146;28;20408;-74
2021/05/14 00:14:51;;;;;;;1.33;0.70;;;;;;;7.79;53.90;91735.53;5019152;28;20053;-74
2021/05/14 00:17:17;;;;;;;0.70;0.70;;;;;;;7.88;50.54;91732.00;5003638;28;20116;-74
2021/05/14 00:19:43;;;;;;;0.63;0.50;;;;;;;7.96;50.99;91735.75;4974228;28;20046;-74
2021/05/14 00:22:08;;;;;;;0.50;0.50;;;;;;;8.08;49.53;91736.06;4992476;28;20463;-74
2021/05/14 00:24:34;;;;;;;1.58;0.70;;;;;;;8.08;51.51;91733.47;5010208;28;20054;-74
2021/05/14 00:27:00;;;;;;;1.25;0.63;;;;;;;8.07;50.78;91733.75;5009090;28;20049;-74
2021/05/14 00:29:25;;;;;;;0.77;0.60;;;;;;;8.09;51.32;91735.00;5001042;28;20038;-74
2021/05/14 00:31:51;;;;;;;1.58;0.65;;;;;;;8.04;50.79;91729.88;4984470;28;20078;-74
2021/05/14 00:34:17;;;;;;;0.50;0.50;;;;;;;8.06;50.57;91732.19;4971456;28;20057;-74
2021/05/14 00:36:43;;;;;;;0.60;0.60;;;;;;;8.11;49.46;91732.13;4978643;28;20050;-76
2021/05/14 00:39:11;;;;;;;0.80;0.60;;;;;;;8.17;49.57;91733.53;4971384;28;20133;-75
2021/05/14 00:41:37;;;;;;;0.50;0.50;;;;;;;8.24;48.05;91733.16;4957749;28;20050;-75
2021/05/14 00:44:24;;;;;;;0.50;0.50;;;;;;;8.28;48.40;91734.13;4973434;28;20101;-74
2021/05/14 00:46:50;;;;;;;0.60;0.60;;;;;;;8.26;48.67;91726.63;4970235;28;20125;-74
2021/05/14 00:49:15;;;;;;;0.88;0.60;;;;;;;8.23;49.95;91731.63;4978631;28;20121;-75
2021/05/14 00:51:41;;;;;;;0.70;0.60;;;;;;;8.16;49.65;91728.63;4982060;28;20077;-74
2021/05/14 00:54:08;;;;;;;0.52;0.52;;;;;;;8.09;50.29;91735.00;4991319;28;20564;-75
2021/05/14 00:56:33;;;;;;;1.52;0.70;;;;;;;8.02;50.96;91733.84;4990967;28;20050;-74
2021/05/14 00:58:59;;;;;;;0.70;0.60;;;;;;;7.96;50.71;91730.53;4988003;28;20054;-75
2021/05/14 01:01:24;;;;;;;0.73;0.60;;;;;;;7.97;49.10;91731.31;4954213;28;20102;-74
2021/05/14 01:07:36;;;;;;;0.50;0.50;;;;;;;7.95;49.26;91726.41;4988714;28;20520;-74
2021/05/14 01:10:02;;;;;;;1.42;0.80;;;;;;;7.90;49.40;91729.88;4970741;28;20042;-74
2021/05/14 01:12:27;;;;;;;0.85;0.70;;;;;;;7.99;49.65;91727.34;4991254;28;20488;-74
2021/05/14 01:14:53;;;;;;;0.77;0.70;;;;;;;7.92;49.55;91726.97;4990028;28;20050;-74
2021/05/14 01:17:19;;;;;;;0.75;0.60;;;;;;;7.92;48.96;91727.75;4971369;28;20189;-74
2021/05/14 01:19:45;;;;;;;1.10;0.70;;;;;;;7.88;52.04;91721.56;4988934;28;20042;-75
2021/05/14 01:22:10;;;;;;;1.33;0.80;;;;;;;7.81;53.45;91730.81;4975948;28;20136;-74
2021/05/14 01:24:36;;;;;;;0.60;0.50;;;;;;;7.69;55.23;91733.88;4994049;28;20058;-74
2021/05/14 01:27:03;;;;;;;1.45;0.60;;;;;;;7.55;55.47;91727.88;4976373;28;20046;-74
2021/05/14 01:29:29;;;;;;;3.45;0.68;;;;;;;7.41;55.16;91731.19;4975782;28;20034;-74
2021/05/14 01:31:55;;;;;;;0.60;0.60;;;;;;;7.28;54.76;91724.88;5002771;28;20073;-75
2021/05/14 01:34:20;;;;;;;1.10;0.68;;;;;;;7.20;54.52;91727.34;4989243;28;20117;-75
2021/05/14 01:36:46;;;;;;;1.73;0.68;;;;;;;7.16;54.31;91724.56;4975943;28;20404;-75
2021/05/14 01:39:13;;;;;;;0.77;0.73;;;;;;;7.11;54.33;91724.59;4989179;28;20138;-75
2021/05/14 01:41:40;;;;;;;0.80;0.63;;;;;;;7.03;54.79;91720.81;4951009;28;20066;-75
2021/05/14 01:44:07;;;;;;;1.92;0.55;;;;;;;6.98;54.47;91727.91;4976961;28;20053;-75
2021/05/14 01:46:33;;;;;;;0.70;0.57;;;;;;;7.01;52.63;91722.16;4987523;28;20042;-75
2021/05/14 01:48:59;;;;;;;1.35;0.70;;;;;;;7.01;52.62;91724.78;4992693;28;20046;-75
2021/05/14 01:51:25;;;;;;;1.52;0.65;;;;;;;7.08;50.58;91730.38;4991080;28;20406;-74
2021/05/14 01:53:52;;;;;;;0.50;0.50;;;;;;;7.04;52.93;91732.00;4974867;28;20575;-75
2021/05/14 01:56:19;;;;;;;3.13;0.70;;;;;;;6.92;54.73;91732.44;4993243;28;20125;-75
2021/05/14 01:58:49;;;;;;;0.63;0.60;;;;;;;6.80;55.59;91734.66;4990610;28;20046;-75
2021/05/14 02:01:15;;;;;;;0.98;0.70;;;;;;;6.69;55.92;91728.84;4968772;28;20105;-75
2021/05/14 02:03:41;;;;;;;0.60;0.60;;;;;;;6.61;55.85;91726.84;4991561;28;20505;-75
2021/05/14 02:06:07;;;;;;;0.68;0.60;;;;;;;6.56;55.46;91727.69;4973181;28;20128;-75
2021/05/14 02:08:33;;;;;;;0.45;0.45;;;;;;;6.58;52.72;91727.44;4993318;28;20046;-75
2021/05/14 02:10:59;;;;;;;0.57;0.52;;;;;;;6.71;50.04;91721.53;4975641;28;20152;-75
2021/05/14 02:13:25;;;;;;;0.60;0.60;;;;;;;6.81;50.57;91721.38;4972789;28;20133;-75
2021/05/14 02:15:51;;;;;;;1.08;0.60;;;;;;;6.89;50.78;91712.19;4993025;28;20108;-75
2021/05/14 02:18:17;;;;;;;2.05;0.73;;;;;;;6.82;51.20;91716.94;4992711;28;20038;-75
2021/05/14 02:20:42;;;;;;;0.43;0.43;;;;;;;6.77;52.23;91714.44;4992899;28;20043;-75
2021/05/14 02:23:08;;;;;;;0.73;0.60;;;;;;;6.74;51.58;91715.75;4974519;28;20093;-75
2021/05/14 02:25:34;;;;;;;1.05;0.63;;;;;;;6.73;50.72;91718.63;4993493;28;20068;-75
2021/05/14 02:28:00;;;;;;;1.00;0.65;;;;;;;6.70;52.40;91719.97;4974294;28;20482;-75
2021/05/14 02:30:26;;;;;;;0.85;0.80;;;;;;;6.61;53.07;91712.03;4989365;28;20053;-75
2021/05/14 02:32:52;;;;;;;0.93;0.50;;;;;;;6.61;52.31;91716.44;4957416;28;20046;-75
2021/05/14 02:35:18;;;;;;;0.63;0.52;;;;;;;6.58;51.54;91711.81;4975408;28;20046;-75
2021/05/14 02:37:43;;;;;;;0.60;0.60;;;;;;;6.53;52.73;91711.88;4975000;28;20046;-75
2021/05/14 02:40:10;;;;;;;1.02;0.60;;;;;;;6.44;53.36;91707.31;4976508;28;20038;-75
2021/05/14 02:42:36;;;;;;;0.50;0.50;;;;;;;6.37;54.21;91714.69;4983930;28;20073;-74
2021/05/14 02:45:05;;;;;;;0.57;0.57;;;;;;;6.31;55.54;91713.19;4992048;28;20572;-74
2021/05/14 02:47:30;;;;;;;0.70;0.70;;;;;;;6.25;56.33;91711.69;4993160;28;20038;-74
2021/05/14 02:49:56;;;;;;;1.05;0.75;;;;;;;6.19;55.81;91715.38;4955783;28;20043;-74
2021/05/14 02:52:22;;;;;;;1.70;0.77;;;;;;;6.16;55.41;91705.56;4973345;28;20054;-74
2021/05/14 02:54:47;;;;;;;0.77;0.70;;;;;;;6.14;55.09;91718.06;4973145;28;20054;-74
2021/05/14 02:57:13;;;;;;;3.33;0.80;;;;;;;6.24;55.08;91712.75;4990459;28;20045;-74
2021/05/14 02:59:38;;;;;;;0.65;0.60;;;;;;;6.28;56.71;91718.16;4995015;28;20093;-74
2021/05/14 03:02:04;;;;;;;1.65;0.90;;;;;;;6.20;57.12;91716.94;4986625;28;20066;-74
2021/05/14 03:04:32;;;;;;;2.88;0.70;;;;;;;6.09;56.99;91718.13;4998819;28;20912;-74
2021/05/14 03:06:58;;;;;;;0.73;0.65;;;;;;;5.99;56.83;91716.38;5007291;28;20066;-73
2021/05/14 03:09:23;;;;;;;0.95;0.80;;;;;;;5.90;57.02;91713.63;4977486;28;20088;-74
2021/05/14 03:11:49;;;;;;;1.67;0.70;;;;;;;5.84;57.48;91710.28;4984958;28;20476;-73
2021/05/14 03:14:15;;;;;;;1.00;0.50;;;;;;;5.82;56.53;91701.97;4978656;28;20411;-73
2021/05/14 03:16:40;;;;;;;0.60;0.60;;;;;;;5.87;56.16;91708.19;4975403;28;20459;-74
2021/05/14 03:19:06;;;;;;;0.65;0.60;;;;;;;5.88;55.86;91710.50;4973373;28;20058;-74
2021/05/14 03:21:32;;;;;;;0.50;0.50;;;;;;;5.95;55.49;91710.97;4992241;28;20408;-74
2021/05/14 03:24:00;;;;;;;1.13;0.63;;;;;;;5.93;55.58;91702.66;5011542;28;20046;-74
2021/05/14 03:26:26;;;;;;;0.82;0.63;;;;;;;5.94;55.37;91709.41;4993933;28;20047;-74
2021/05/14 03:28:52;;;;;;;0.70;0.60;;;;;;;6.05;55.15;91710.09;4990903;28;20053;-74
2021/05/14 03:31:18;;;;;;;1.13;0.68;;;;;;;6.28;53.65;91705.91;4976876;28;20133;-74
2021/05/14 03:33:44;;;;;;;0.77;0.60;;;;;;;6.21;54.79;91716.69;4978536;28;20058;-74
2021/05/14 03:36:10;;;;;;;0.82;0.70;;;;;;;6.14;55.96;91716.22;4973409;28;20147;-74
2021/05/14 03:38:36;;;;;;;0.57;0.52;;;;;;;6.06;57.03;91714.25;4972030;28;20416;-74
2021/05/14 03:41:16;;;;;;;0.60;0.60;;;;;;;5.99;58.18;91724.97;4986375;28;20380;-74
2021/05/14 03:43:42;;;;;;;0.77;0.70;;;;;;;5.88;58.13;91720.91;4993501;28;20046;-74
2021/05/14 03:46:07;;;;;;;0.50;0.50;;;;;;;5.81;58.84;91726.41;5012532;28;20511;-74
2021/05/14 03:48:33;;;;;;;1.17;0.60;;;;;;;5.82;58.93;91729.78;5009378;28;20064;-74
2021/05/14 03:50:59;;;;;;;1.02;0.88;;;;;;;5.80;61.91;91731.88;5007947;28;20045;-74
2021/05/14 03:53:24;;;;;;;1.50;0.70;;;;;;;5.75;63.20;91731.94;4991599;28;20105;-74
2021/05/14 03:55:53;;;;;;;0.70;0.70;;;;;;;5.71;63.94;91743.91;4991993;28;20464;-74
2021/05/14 03:58:19;;;;;;;1.55;0.88;;;;;;;5.64;65.24;91739.03;5006839;28;20402;-74
2021/05/14 04:00:45;;;;;;;1.27;0.90;;;;;;;5.58;65.85;91751.31;5006511;28;20041;-75
2021/05/14 04:03:13;;;;;;;1.42;1.00;;;;;;;5.55;66.24;91748.47;4997624;28;20400;-74
2021/05/14 04:05:40;;;;;;;1.20;0.73;;;;;;;5.51;65.70;91745.63;4981767;28;20408;-74
2021/05/14 04:08:06;;;;;;;1.58;0.98;;;;;;;5.51;65.59;91748.22;4991118;28;20420;-74
2021/05/14 04:15:44;;;;;;;0.80;0.70;;;;;;;5.54;66.11;91752.91;4988324;28;20055;-74
2021/05/14 04:18:10;;;;;;;1.05;0.73;;;;;;;5.52;65.85;91762.78;5012578;28;20492;-75
2021/05/14 04:20:37;;;;;;;2.15;1.00;;;;;;;5.52;66.49;91759.41;4978165;28;20060;-75
2021/05/14 04:23:03;;;;;;;1.35;1.00;;;;;;;5.54;67.03;91763.28;4981436;28;20519;-76
2021/05/14 04:25:36;;;;;;;2.92;0.90;;;;;;;5.55;66.00;91766.63;5007498;28;20046;-76
2021/05/14 04:28:02;;;;;;;4.05;1.90;;;;;;;5.53;64.65;91766.13;4956338;28;20148;-75
2021/05/14 04:30:28;;;;;;;5.30;2.42;;;;;;;5.52;63.65;91770.56;5004326;28;20074;-75
2021/05/14 04:32:54;;;;;;;5.45;2.80;;;;;;;5.51;63.33;91769.00;4989243;28;20045;-74
2021/05/14 04:35:19;;;;;;;3.92;2.00;;;;;;;5.53;63.08;91766.13;4991974;28;20069;-75
2021/05/14 04:37:45;;;;;;;2.83;1.50;;;;;;;5.55;63.44;91767.41;4974307;28;20058;-74
2021/05/14 04:40:11;;;;;;;2.28;1.20;;;;;;;5.58;64.20;91760.91;4974362;28;20065;-74
2021/05/14 04:42:37;;;;;;;2.17;1.20;;;;;;;5.60;64.54;91767.34;4991601;28;20174;-75
2021/05/14 04:45:03;;;;;;;2.25;1.30;;;;;;;5.66;65.57;91767.34;4974542;28;20060;-74
2021/05/14 04:47:28;;;;;;;1.83;1.17;;;;;;;5.73;65.87;91770.38;4991781;28;20125;-75
2021/05/14 04:49:54;;;;;;;2.45;1.20;;;;;;;5.79;66.93;91774.50;4970281;28;20396;-75
2021/05/14 04:52:22;;;;;;;4.90;1.30;;;;;;;5.88;67.81;91775.44;4970011;28;20054;-75
2021/05/14 04:54:48;;;;;;;2.25;1.35;;;;;;;5.99;68.80;91778.72;4972418;28;20039;-75
2021/05/14 04:57:14;;;;;;;2.15;1.40;;;;;;;6.10;68.92;91774.22;4923293;28;20047;-75
2021/05/14 04:59:41;;;;;;;3.33;1.60;;;;;;;6.23;69.19;91778.75;4963435;28;20047;-75
2021/05/14 05:02:07;;;;;;;2.65;1.58;;;;;;;6.36;70.30;91793.69;4963362;28;20058;-75
2021/05/14 05:04:37;;;;;;;2.47;1.27;;;;;;;6.58;72.93;91788.00;4958967;28;20038;-74
2021/05/14 05:07:04;;;;;;;3.28;1.35;;;;;;;6.76;73.98;91786.50;4957366;28;20140;-74
2021/05/14 05:09:30;;;;;;;2.83;1.30;;;;;;;6.88;74.12;91789.44;4973933;28;20039;-74
2021/05/14 05:11:56;;;;;;;2.95;1.58;;;;;;;7.01;73.83;91787.22;5022117;28;20045;-77
2021/05/14 05:14:22;;;;;;;2.92;1.50;;;;;;;7.09;72.68;91789.97;4977370;28;20101;-74
2021/05/14 05:16:47;;;;;;;3.85;1.60;;;;;;;7.18;71.23;91782.31;5010992;28;20050;-75
2021/05/14 05:19:13;;;;;;;3.67;1.70;;;;;;;7.26;70.92;91783.50;5011252;28;20034;-75
2021/05/14 05:21:39;;;;;;;3.67;1.70;;;;;;;7.37;70.45;91789.34;5011138;28;20050;-75
2021/05/14 05:24:05;;;;;;;4.03;1.65;;;;;;;7.46;69.89;91798.06;4993650;28;20105;-75
2021/05/14 05:26:30;;;;;;;3.17;1.60;;;;;;;7.58;69.45;91800.22;5011172;28;20321;-75
2021/05/14 05:28:56;;;;;;;4.20;1.83;;;;;;;7.68;69.73;91800.84;4993545;28;20046;-75
2021/05/14 05:31:21;;;;;;;3.53;1.55;;;;;;;7.86;72.27;91801.09;4977128;28;20053;-75
2021/05/14 05:33:47;;;;;;;3.33;1.90;;;;;;;8.05;68.74;91799.19;4979169;28;20085;-75
2021/05/14 05:36:13;;;;;;;2.15;1.33;;;;;;;8.21;71.77;91801.53;4974168;28;20047;-75
2021/05/14 05:38:39;;;;;;;2.95;1.20;;;;;;;8.32;71.06;91802.91;4973983;28;20066;-75
2021/05/14 05:41:04;;;;;;;3.25;1.40;;;;;;;8.42;69.52;91800.16;4974093;28;20504;-75
2021/05/14 05:43:30;;;;;;;3.53;1.33;;;;;;;8.52;69.08;91802.56;4974007;28;20045;-75
2021/05/14 05:45:56;;;;;;;2.67;1.42;;;;;;;8.60;68.06;91803.75;4991060;28;20471;-75
2021/05/14 05:48:21;;;;;;;1.90;1.20;;;;;;;8.72;67.46;91804.00;4990914;28;20049;-73
2021/05/14 05:50:47;;;;;;;5.10;1.52;;;;;;;8.98;65.85;91805.34;4991351;28;20412;-74
2021/05/14 05:53:12;;;;;;;4.65;1.60;;;;;;;9.22;64.36;91811.09;4957794;28;20186;-74
2021/05/14 05:55:39;;;;;;;2.70;1.50;;;;;;;10.12;61.40;91802.56;4973807;28;20128;-76
2021/05/14 05:58:09;;;;;;;2.90;1.45;;;;;;;12.73;52.94;91802.06;4957557;28;20038;-75
2021/05/14 06:00:35;;;;;;;2.03;1.35;;;;;;;13.92;48.46;91808.00;4991089;28;20065;-75
2021/05/14 06:03:02;;;;;;;3.00;1.40;;;;;;;15.66;46.37;91805.22;4973668;28;20284;-75
2021/05/14 06:05:28;;;;;;;2.65;1.30;;;;;;;15.45;43.76;91805.38;4977186;28;20560;-75
2021/05/14 06:07:54;;;;;;;1.65;1.30;;;;;;;17.65;37.66;91803.44;4977248;28;20034;-75
2021/05/14 06:10:20;;;;;;;2.88;1.50;;;;;;;18.06;37.85;91801.28;4993468;28;20467;-76
2021/05/14 06:12:46;;;;;;;3.15;1.40;;;;;;;17.87;36.65;91801.25;4994630;28;20093;-76
2021/05/14 06:15:11;;;;;;;2.17;1.20;;;;;;;17.36;37.82;91799.41;4994457;28;20100;-75
2021/05/14 06:17:41;;;;;;;6.15;1.70;;;;;;;16.88;40.52;91806.59;4994227;28;20500;-75
2021/05/14 06:20:09;;;;;;;3.15;1.50;;;;;;;16.10;41.64;91808.75;4977615;28;20050;-75
2021/05/14 06:22:35;;;;;;;3.03;1.20;;;;;;;17.52;41.13;91802.03;4993971;28;20043;-75
2021/05/14 06:25:01;;;;;;;4.90;1.30;;;;;;;19.90;34.14;91797.06;4995438;28;20132;-76
2021/05/14 06:27:26;;;;;;;2.35;1.20;;;;;;;20.28;32.06;91792.56;4996195;28;20048;-76
2021/05/14 06:29:52;;;;;;;1.98;1.33;;;;;;;20.51;31.85;91795.88;5014105;28;20484;-76
2021/05/14 06:32:18;;;;;;;1.70;1.20;;;;;;;21.03;30.70;91800.53;5009513;28;20043;-76
2021/05/14 06:34:45;;;;;;;2.55;1.30;;;;;;;18.83;34.99;91804.94;4958313;28;20523;-77
2021/05/14 06:37:10;;;;;;;2.75;1.30;;;;;;;18.92;34.20;91808.13;4976832;28;20038;-76
2021/05/14 06:39:36;;;;;;;1.98;1.20;;;;;;;17.76;38.45;91805.53;4976144;28;20609;-76
2021/05/14 06:42:02;;;;;;;3.58;1.17;;;;;;;17.70;39.37;91807.69;4975241;28;20526;-76
2021/05/14 06:44:29;;;;;;;5.15;1.20;;;;;;;19.19;36.94;91797.56;4993242;28;20079;-75
2021/05/14 06:46:55;;;;;;;2.80;1.10;;;;;;;17.94;36.24;91806.69;4993660;28;20069;-77
2021/05/14 06:49:39;;;;;;;3.50;1.05;;;;;;;17.13;40.91;91801.88;5014114;28;20046;-75
2021/05/14 06:52:05;;;;;;;3.40;0.90;;;;;;;15.13;46.19;91803.31;4986949;28;20050;-77
2021/05/14 06:54:30;;;;;;;2.33;1.10;;;;;;;12.98;54.97;91814.28;4976112;28;20052;-75
2021/05/14 06:56:56;;;;;;;2.03;1.10;;;;;;;12.37;55.16;91817.13;4992871;28;20058;-76
2021/05/14 06:59:22;;;;;;;2.65;1.20;;;;;;;12.13;55.90;91817.66;4990845;28;20113;-75
2021/05/14 07:01:47;;;;;;;2.67;1.20;;;;;;;11.80;57.24;91820.75;4977992;28;20573;-76
2021/05/14 07:04:13;;;;;;;1.60;1.05;;;;;;;11.77;58.87;91821.34;4959809;28;20548;-76
2021/05/14 07:06:39;;;;;;;3.78;1.20;;;;;;;11.69;59.07;91819.50;4976131;28;20054;-76
2021/05/14 07:09:05;;;;;;;4.18;1.30;;;;;;;11.74;57.90;91819.34;4992716;28;20072;-76
2021/05/14 07:11:30;;;;;;;3.28;1.48;;;;;;;11.42;58.14;91826.59;5008461;28;20535;-76
2021/05/14 07:13:56;;;;;;;4.60;1.58;;;;;;;11.84;56.99;91831.38;4992815;28;20515;-76
2021/05/14 07:16:22;;;;;;;3.60;1.30;;;;;;;12.05;57.15;91829.69;4955531;28;20421;-75
2021/05/14 07:18:47;;;;;;;6.20;1.35;;;;;;;12.89;53.73;91824.06;4989834;28;20520;-75
2021/05/14 07:21:13;;;;;;;2.95;1.30;;;;;;;13.24;54.26;91824.69;4992848;28;20051;-76
2021/05/14 07:23:38;;;;;;;2.33;1.20;;;;;;;13.25;53.25;91822.81;4975821;28;20030;-76
2021/05/14 07:26:04;;;;;;;2.20;1.25;;;;;;;12.77;55.66;91826.59;4992758;28;20054;-76
2021/05/14 07:28:30;;;;;;;2.17;1.20;;;;;;;12.40;56.59;91828.88;4992842;28;20049;-76
2021/05/14 07:30:55;;;;;;;2.97;1.40;;;;;;;12.12;58.15;91825.84;4966494;28;20073;-76
2021/05/14 07:33:21;;;;;;;2.15;1.30;;;;;;;12.45;56.26;91826.06;4981216;28;20059;-77
2021/05/14 07:35:47;;;;;;;4.78;1.27;;;;;;;12.47;57.11;91823.91;4973624;28;20356;-75
2021/05/14 07:38:12;;;;;;;1.60;1.10;;;;;;;12.35;56.91;91829.03;4973255;28;20465;-75
2021/05/14 07:40:39;;;;;;;3.55;1.23;;;;;;;12.27;57.30;91831.38;4973331;28;20417;-75
2021/05/14 07:43:05;;;;;;;2.72;1.20;;;;;;;12.37;56.52;91819.00;4973345;28;20039;-75
2021/05/14 07:45:31;;;;;;;4.57;1.20;;;;;;;12.70;56.63;91825.22;4973378;28;20629;-75
2021/05/14 07:47:57;;;;;;;4.18;1.33;;;;;;;12.06;58.04;91822.59;4972285;28;20034;-75
2021/05/14 07:50:23;;;;;;;2.67;1.17;;;;;;;11.77;58.33;91821.34;4972292;28;20070;-75
2021/05/14 07:52:49;;;;;;;2.55;1.30;;;;;;;11.06;58.21;91831.31;4972837;28;20114;-75
2021/05/14 07:55:15;;;;;;;2.65;1.30;;;;;;;11.60;58.89;91831.84;4972826;28;20054;-75
2021/05/14 07:57:40;;;;;;;1.80;1.10;;;;;;;11.68;57.73;91833.69;4972791;28;20038;-75
2021/05/14 08:00:06;;;;;;;1.73;1.05;;;;;;;12.03;55.76;91825.84;4955838;28;20074;-75
2021/05/14 08:02:32;;;;;;;1.73;1.02;;;;;;;11.94;56.12;91825.09;4973014;28;20497;-75
2021/05/14 08:04:58;;;;;;;3.20;1.15;;;;;;;12.09;55.73;91827.22;4973018;28;20061;-75
2021/05/14 08:07:23;;;;;;;1.20;1.00;;;;;;;12.47;56.04;91823.91;4955542;28;20034;-75
2021/05/14 08:09:49;;;;;;;1.65;0.90;;;;;;;12.12;55.30;91831.09;4955648;28;20057;-75
2021/05/14 08:12:15;;;;;;;3.88;1.27;;;;;;;12.51;56.62;91830.06;4972554;28;20049;-75
2021/05/14 08:14:41;;;;;;;2.08;0.90;;;;;;;11.83;54.31;91829.84;4972603;28;20122;-75
2021/05/14 08:17:06;;;;;;;2.15;1.17;;;;;;;12.18;55.05;91837.69;4972525;28;20097;-75
2021/05/14 08:19:32;;;;;;;1.30;0.90;;;;;;;12.52;55.19;91843.97;4955152;28;20078;-75
2021/05/14 08:21:58;;;;;;;2.10;0.95;;;;;;;12.16;53.96;91840.66;4972669;28;20494;-75
2021/05/14 08:24:23;;;;;;;1.65;0.90;;;;;;;12.49;54.45;91842.75;4955444;28;20047;-75
2021/05/14 08:26:49;;;;;;;1.23;0.80;;;;;;;12.01;51.64;91846.38;4955281;28;20047;-75
2021/05/14 08:29:15;;;;;;;1.83;0.80;;;;;;;12.49;53.77;91845.38;4971917;28;20051;-75
2021/05/14 08:31:40;;;;;;;1.98;0.90;;;;;;;12.53;50.96;91843.66;4972666;28;20073;-75
2021/05/14 08:34:11;;;;;;;1.48;1.00;;;;;;;12.71;53.02;91844.38;4967817;28;20054;-75
2021/05/14 08:36:37;;;;;;;3.03;0.88;;;;;;;12.86;52.36;91843.88;4992034;28;20535;-75
2021/05/14 08:39:04;;;;;;;1.20;0.73;;;;;;;12.99;50.42;91842.13;4991910;28;20038;-75
2021/05/14 08:41:29;;;;;;;0.80;0.73;;;;;;;13.29;49.57;91850.03;4992289;28;20530;-75
2021/05/14 08:43:55;;;;;;;1.35;0.85;;;;;;;13.37;49.76;91846.56;4992152;28;20121;-75
2021/05/14 08:46:24;;;;;;;0.60;0.60;;;;;;;13.38;49.50;91842.88;4991906;28;20068;-75
2021/05/14 08:48:52;;;;;;;0.90;0.70;;;;;;;13.28;50.13;91848.47;4991734;28;20042;-75
2021/05/14 08:51:23;;;;;;;2.75;0.90;;;;;;;13.50;48.03;91844.81;4991852;28;20053;-75
2021/05/14 08:53:49;;;;;;;0.93;0.73;;;;;;;13.59;47.17;91847.38;4974230;28;20532;-75
2021/05/14 08:56:15;;;;;;;1.02;0.73;;;;;;;13.56;46.45;91842.78;4991766;28;20283;-75
2021/05/14 08:58:44;;;;;;;2.40;1.05;;;;;;;13.61;46.16;91845.22;4991712;28;20315;-75
2021/05/14 09:01:09;;;;;;;1.58;0.80;;;;;;;13.42;44.76;91845.63;4974139;28;20496;-75
2021/05/14 09:03:54;;;;;;;2.05;0.80;;;;;;;13.41;46.26;91850.13;4974159;28;20057;-75
2021/05/14 09:06:41;;;;;;;0.70;0.63;;;;;;;13.64;47.61;91841.94;4992005;28;20460;-75
2021/05/14 09:09:09;;;;;;;5.57;2.15;;;;;;;13.77;46.95;91848.78;4974556;28;20065;-75
2021/05/14 09:11:54;;;;;;;2.03;1.10;;;;;;;13.62;44.68;91847.53;4990619;28;20034;-77
2021/05/14 09:14:44;;;;;;;1.25;0.80;;;;;;;13.57;47.15;91839.81;4988511;28;20041;-77
2021/05/14 09:17:14;;;;;;;1.40;0.80;;;;;;;13.11;46.96;91839.56;4991267;28;20053;-76
2021/05/14 09:19:43;;;;;;;2.15;1.00;;;;;;;13.10;46.31;91843.31;4991044;28;20058;-75
2021/05/14 09:22:21;;;;;;;2.05;0.98;;;;;;;13.64;46.73;91839.28;4990629;28;20066;-75
2021/05/14 09:24:49;;;;;;;1.77;0.80;;;;;;;13.71;46.92;91842.19;4972901;28;20054;-77
2021/05/14 09:27:30;;;;;;;1.67;0.80;;;;;;;14.30;46.05;91849.16;4991437;28;20124;-78
2021/05/14 09:29:58;;;;;;;3.00;1.65;;;;;;;13.71;44.97;91840.34;4992709;28;20049;-78
2021/05/14 09:32:46;;;;;;;1.73;0.93;;;;;;;13.26;45.59;91846.16;4992906;28;20148;-77
2021/05/14 09:35:12;;;;;;;1.08;0.80;;;;;;;13.45;46.74;91837.13;4990047;28;20410;-77
2021/05/14 09:37:48;;;;;;;1.65;0.95;;;;;;;14.16;44.98;91836.25;4991822;28;20057;-78
2021/05/14 09:40:22;;;;;;;0.63;0.60;;;;;;;14.31;41.86;91838.28;5015407;28;20124;-78
2021/05/14 09:42:57;;;;;;;1.20;0.80;;;;;;;14.33;40.44;91843.25;5001062;28;20088;-78
2021/05/14 09:45:24;;;;;;;0.63;0.63;;;;;;;14.66;42.13;91840.63;4993447;28;20042;-78
2021/05/14 09:48:26;;;;;;;2.13;0.88;;;;;;;14.78;40.94;91826.69;5000996;28;20118;-78
2021/05/14 09:50:53;;;;;;;1.27;0.77;;;;;;;14.62;43.50;91825.78;4991957;28;20047;-79
2021/05/14 09:53:21;;;;;;;1.10;0.70;;;;;;;14.14;39.78;91833.19;4989175;28;20620;-78
2021/05/14 09:55:51;;;;;;;1.80;0.98;;;;;;;14.40;40.17;91825.03;4999603;28;20390;-78
2021/05/14 09:58:22;;;;;;;1.23;0.88;;;;;;;14.52;41.65;91826.94;5011547;28;20046;-77
2021/05/14 10:00:48;;;;;;;1.70;0.90;;;;;;;14.34;41.05;91823.69;4989512;28;20046;-77
2021/05/14 10:03:20;;;;;;;1.30;0.70;;;;;;;14.31;41.11;91825.13;4995854;28;20084;-76
2021/05/14 10:05:48;;;;;;;0.55;0.52;;;;;;;14.05;38.47;91824.59;5014377;28;20054;-77
2021/05/14 10:08:22;;;;;;;2.33;0.90;;;;;;;14.57;38.03;91827.53;5004938;28;20034;-78
2021/05/14 10:10:49;;;;;;;1.58;0.65;;;;;;;14.62;39.90;91810.75;4997095;28;20093;-76
2021/05/14 10:13:14;;;;;;;1.77;0.70;;;;;;;14.69;39.26;91808.34;4978371;28;20038;-83
2021/05/14 10:15:40;;;;;;;0.70;0.70;;;;;;;14.65;40.50;91807.44;4981500;28;20050;-77
2021/05/14 10:18:14;;;;;;;2.00;0.90;;;;;;;14.51;42.09;91817.50;4991846;28;20378;-77
2021/05/14 10:20:41;;;;;;;2.10;1.02;;;;;;;14.96;43.82;91809.56;4994270;28;20038;-77
2021/05/14 10:23:07;;;;;;;2.08;1.00;;;;;;;14.95;42.67;91804.63;4993643;28;20061;-76
2021/05/14 10:25:39;;;;;;;3.72;0.90;;;;;;;14.65;41.04;91812.72;4993502;28;20050;-78
2021/05/14 10:28:24;;;;;;;2.67;1.10;;;;;;;14.56;43.88;91801.50;4977257;28;20538;-78
2021/05/14 10:31:09;;;;;;;3.70;1.05;;;;;;;14.78;43.23;91800.34;4988979;28;20046;-77
2021/05/14 10:33:49;;;;;;;2.63;1.00;;;;;;;15.16;45.09;91797.38;4989848;28;20050;-77
2021/05/14 10:36:15;;;;;;;2.30;1.08;;;;;;;14.63;44.72;91799.09;4993467;28;20088;-78
2021/05/14 10:38:41;;;;;;;2.95;1.10;;;;;;;14.61;45.59;91787.38;5000406;28;20132;-76
2021/05/14 10:41:26;;;;;;;1.85;1.00;;;;;;;14.44;43.38;91802.25;4979582;28;20556;-77
2021/05/14 10:44:10;;;;;;;1.58;0.90;;;;;;;14.15;42.59;91800.50;4997058;28;20034;-78
2021/05/14 10:46:36;;;;;;;1.52;1.00;;;;;;;14.52;42.75;91782.94;4979019;28;20065;-78
2021/05/14 10:49:09;;;;;;;1.17;0.93;;;;;;;15.13;41.65;91790.16;4994546;28;20046;-77
2021/05/14 10:51:50;;;;;;;1.75;0.70;;;;;;;15.62;38.76;91789.28;4993639;28;20109;-78
2021/05/14 10:54:41;;;;;;;2.08;1.10;;;;;;;15.81;37.96;91781.59;4991638;28;20049;-78
2021/05/14 10:57:08;;;;;;;1.52;0.93;;;;;;;15.83;42.57;91778.63;4992437;28;20056;-77
2021/05/14 10:59:35;;;;;;;1.25;0.77;;;;;;;15.38;43.03;91782.22;4990144;28;20490;-78
2021/05/14 11:02:30;;;;;;;1.88;1.00;;;;;;;15.07;42.95;91775.66;4990740;28;20041;-78
2021/05/14 11:04:57;;;;;;;1.27;0.82;;;;;;;15.48;44.86;91767.78;4974458;28;20120;-78
2021/05/14 11:07:32;;;;;;;3.95;1.00;;;;;;;15.43;44.50;91768.78;4973638;28;20057;-78
2021/05/14 11:10:14;;;;;;;2.78;1.20;;;;;;;15.94;45.23;91771.75;4990302;28;20042;-78
2021/05/14 11:12:41;;;;;;;2.47;1.05;;;;;;;16.35;42.79;91761.88;4979352;28;20504;-78
2021/05/14 11:15:30;;;;;;;2.13;0.85;;;;;;;16.20;41.57;91776.56;4983841;28;20106;-78
2021/05/14 11:18:14;;;;;;;3.55;1.20;;;;;;;15.48;41.38;91767.78;5016473;28;20522;-78
2021/05/14 11:20:48;;;;;;;3.72;1.15;;;;;;;16.21;42.42;91766.78;5015673;28;20069;-78
2021/05/14 11:23:33;;;;;;;1.85;1.00;;;;;;;16.45;40.31;91765.88;5016685;28;20045;-78
2021/05/14 11:25:59;;;;;;;1.30;0.82;;;;;;;16.60;37.46;91764.38;5016382;28;20097;-78
2021/05/14 11:28:44;;;;;;;2.10;0.90;;;;;;;16.18;41.01;91762.94;5015916;28;20038;-78
2021/05/14 11:31:15;;;;;;;2.88;1.05;;;;;;;16.96;40.66;91763.38;5016366;28;20158;-78
2021/05/14 11:33:43;;;;;;;2.38;0.80;;;;;;;16.97;35.21;91764.13;5011155;28;20065;-78
2021/05/14 11:36:08;;;;;;;3.05;1.25;;;;;;;16.12;39.81;91760.88;4977748;28;20047;-78
2021/05/14 11:38:43;;;;;;;2.78;1.10;;;;;;;16.66;38.48;91757.72;4977609;28;20505;-78
2021/05/14 11:41:14;;;;;;;5.10;1.20;;;;;;;17.06;36.87;91757.53;4977619;28;20050;-79
2021/05/14 11:44:02;;;;;;;2.80;1.00;;;;;;;17.06;36.18;91762.06;4977688;28;20027;-78
2021/05/14 11:46:31;;;;;;;1.85;0.85;;;;;;;16.84;37.48;91766.88;4977087;28;20073;-78
2021/05/14 11:49:08;;;;;;;4.20;1.30;;;;;;;15.73;41.83;91766.63;4977525;28;20397;-78
2021/05/14 11:51:36;;;;;;;3.22;1.20;;;;;;;16.43;41.46;91771.50;4977181;28;20145;-78